createdAt,value
2022-12-18T11:24:37.658Z,379.27
2022-12-18T11:27:17.658Z,322.13
2022-12-18T11:29:46.707Z,312.23
2022-12-18T11:32:16.562Z,308.43
2022-12-18T11:34:47.177Z,281.03
2022-12-18T11:37:16.791Z,292.23
2022-12-18T11:39:47.869Z,232.00
2022-12-18T11:42:29.565Z,283.47
2022-12-18T11:45:01.384Z,326.47
2022-12-18T12:05:43.377Z,12.10
2022-12-18T12:08:54.927Z,15.73
2022-12-18T12:11:40.224Z,17.00
2022-12-18T12:15:01.015Z,15.57
2022-12-18T12:17:33.235Z,17.20
2022-12-18T12:20:11.764Z,22.13
2022-12-18T12:22:57.818Z,18.57
2022-12-18T12:25:45.725Z,20.13
2022-12-18T12:28:34.159Z,25.40
2022-12-18T12:31:03.817Z,33.67
2022-12-18T12:33:36.515Z,25.00
2022-12-18T12:37:07.953Z,22.83
2022-12-18T12:39:38.185Z,19.17
2022-12-18T12:42:35.554Z,19.53
2022-12-18T12:45:06.618Z,18.07
2022-12-18T12:47:37.782Z,16.17
2022-12-18T12:50:08.224Z,16.10
2022-12-18T12:52:38.595Z,16.00
2022-12-18T12:55:24.531Z,16.65
2022-12-18T12:58:16.482Z,15.27
2022-12-18T13:01:04.003Z,15.07
2022-12-18T13:03:46.174Z,16.13
2022-12-18T13:06:44.385Z,13.86
2022-12-18T13:09:11.919Z,12.60
2022-12-18T13:12:03.920Z,16.57
2022-12-18T13:14:34.938Z,15.77
2022-12-18T13:17:26.323Z,15.40
2022-12-18T13:20:04.435Z,15.83
2022-12-18T13:22:41.838Z,14.40
2022-12-18T13:25:37.243Z,15.87
2022-12-18T13:28:15.162Z,25.27
2022-12-18T13:30:41.968Z,23.37
2022-12-18T13:33:15.293Z,17.70
2022-12-18T13:35:42.990Z,22.07
2022-12-18T13:38:37.927Z,17.13
2022-12-18T13:41:19.783Z,18.00
2022-12-18T13:43:48.720Z,14.53
2022-12-18T13:46:31.150Z,15.93
2022-12-18T13:49:04.122Z,14.60
2022-12-18T13:51:33.408Z,13.40
2022-12-18T13:54:37.549Z,17.38
2022-12-18T13:57:07.381Z,21.13
2022-12-18T13:59:38.883Z,18.93
2022-12-18T14:02:15.592Z,21.90
2022-12-18T14:04:42.701Z,20.67
2022-12-18T14:07:15.005Z,21.73
2022-12-18T14:09:44.632Z,21.73
2022-12-18T14:12:36.457Z,19.10
2022-12-18T14:15:04.039Z,19.57
2022-12-18T14:17:32.533Z,17.80
2022-12-18T14:19:59.291Z,16.33
2022-12-18T14:22:30.406Z,21.60
2022-12-18T14:25:14.513Z,17.23
2022-12-18T14:27:47.136Z,18.37
2022-12-18T14:30:29.355Z,16.00
2022-12-18T14:33:09.302Z,18.30
2022-12-18T14:35:38.862Z,18.17
2022-12-18T14:38:17.546Z,21.67
2022-12-18T14:40:44.721Z,20.40
2022-12-18T14:43:14.680Z,17.97
2022-12-18T14:45:45.241Z,20.40
2022-12-18T14:48:23.622Z,20.57
2022-12-18T14:51:04.928Z,23.67
2022-12-18T14:53:35.977Z,21.03
2022-12-18T14:56:03.964Z,19.53
2022-12-18T14:58:30.702Z,19.53
2022-12-18T15:00:57.372Z,22.53
2022-12-18T15:03:24.054Z,18.20
2022-12-18T15:05:51.801Z,19.83
2022-12-18T15:08:35.800Z,19.00
2022-12-18T15:11:02.405Z,19.37
2022-12-18T15:13:29.900Z,22.30
2022-12-18T15:15:59.317Z,29.43
2022-12-18T15:18:33.272Z,28.53
2022-12-18T15:21:10.801Z,23.03
2022-12-18T15:23:46.315Z,18.23
2022-12-18T15:26:15.584Z,25.60
2022-12-18T15:28:57.154Z,19.53
2022-12-18T15:31:37.869Z,16.80
2022-12-18T15:34:20.265Z,18.23
2022-12-18T15:36:47.079Z,22.13
2022-12-18T15:39:14.260Z,21.50
2022-12-18T15:41:41.014Z,22.83
2022-12-18T15:44:24.813Z,22.17
2022-12-18T15:46:51.487Z,23.20
2022-12-18T15:49:18.143Z,16.20
2022-12-18T15:51:44.875Z,16.40
2022-12-18T15:54:15.079Z,17.87
2022-12-18T15:57:00.525Z,19.30
2022-12-18T15:59:27.370Z,19.23
2022-12-18T16:01:54.459Z,19.70
2022-12-18T16:04:22.953Z,20.80
2022-12-18T16:09:37.861Z,23.10
2022-12-18T16:12:04.790Z,19.43
2022-12-18T16:14:32.400Z,21.73
2022-12-18T16:17:01.034Z,22.47
2022-12-18T16:19:28.425Z,28.60
2022-12-18T16:21:56.401Z,21.83
2022-12-18T16:24:34.007Z,23.53
2022-12-18T16:27:01.282Z,25.23
2022-12-18T16:29:29.652Z,28.83
2022-12-18T16:31:57.305Z,20.60
2022-12-18T16:34:29.546Z,21.57
2022-12-18T16:37:05.249Z,20.40
2022-12-18T16:39:34.176Z,23.20
2022-12-18T16:42:05.788Z,34.27
2022-12-18T16:44:34.044Z,24.70
2022-12-18T16:47:03.043Z,27.47
2022-12-18T16:49:30.622Z,25.03
2022-12-18T16:51:57.474Z,24.77
2022-12-18T16:54:24.278Z,29.43
2022-12-18T16:56:52.275Z,27.63
2022-12-18T16:59:19.164Z,49.00
2022-12-18T17:01:47.012Z,65.77
2022-12-18T17:04:14.149Z,31.37
2022-12-18T17:06:43.117Z,27.93
2022-12-18T17:09:13.721Z,31.63
2022-12-18T17:11:40.444Z,32.90
2022-12-18T17:14:18.496Z,23.17
2022-12-18T17:16:45.448Z,20.27
2022-12-18T17:19:17.024Z,26.80
2022-12-18T17:21:45.201Z,29.07
2022-12-18T17:24:12.196Z,31.33
2022-12-18T17:26:39.110Z,30.30
2022-12-18T17:29:06.189Z,27.97
2022-12-18T17:31:32.935Z,27.87
2022-12-18T17:34:01.951Z,27.17
2022-12-18T17:36:29.062Z,25.83
2022-12-18T17:38:57.374Z,26.43
2022-12-18T17:41:24.431Z,24.07
2022-12-18T17:43:59.721Z,23.40
2022-12-18T17:46:27.636Z,28.23
2022-12-18T17:48:58.514Z,24.47
2022-12-18T17:51:25.511Z,23.53
2022-12-18T17:53:52.225Z,21.37
2022-12-18T17:56:20.534Z,20.53
2022-12-18T17:58:48.171Z,24.90
2022-12-18T18:01:16.751Z,41.27
2022-12-18T18:03:44.422Z,36.47
2022-12-18T18:06:11.436Z,27.00
2022-12-18T18:08:38.104Z,19.97
2022-12-18T18:11:30.204Z,17.87
2022-12-18T18:14:04.267Z,20.00
2022-12-18T18:16:37.044Z,18.90
2022-12-18T18:19:06.675Z,19.20
2022-12-18T18:21:33.443Z,24.07
2022-12-18T18:24:02.375Z,24.63
2022-12-18T18:26:31.714Z,19.90
2022-12-18T18:28:59.817Z,19.03
2022-12-18T18:31:30.595Z,25.57
2022-12-18T18:33:57.577Z,30.00
2022-12-18T18:36:24.644Z,41.87
2022-12-18T18:38:51.893Z,31.67
2022-12-18T18:41:19.249Z,27.90
2022-12-18T18:43:45.919Z,28.83
2022-12-18T18:46:14.209Z,31.27
2022-12-18T18:48:41.631Z,25.27
2022-12-18T18:51:20.874Z,23.97
2022-12-18T18:53:49.822Z,23.53
2022-12-18T18:59:05.279Z,38.13
2022-12-18T19:01:32.122Z,21.13
2022-12-18T19:03:59.018Z,20.23
2022-12-18T19:06:28.457Z,33.97
2022-12-18T19:08:56.827Z,22.87
2022-12-18T19:11:43.719Z,20.83
2022-12-18T19:14:12.616Z,224.53
2022-12-18T19:16:39.743Z,23.70
2022-12-18T19:19:07.201Z,27.60
2022-12-18T19:21:34.921Z,22.90
2022-12-18T19:24:02.779Z,22.47
2022-12-18T19:26:29.828Z,19.30
2022-12-18T19:29:07.216Z,21.20
2022-12-18T19:31:36.476Z,24.60
2022-12-18T19:34:06.882Z,22.63
2022-12-18T19:36:35.417Z,24.93
2022-12-18T19:39:02.612Z,21.33
2022-12-18T19:41:31.163Z,21.67
2022-12-18T19:43:58.775Z,27.17
2022-12-18T19:46:25.501Z,25.87
2022-12-18T19:48:52.543Z,23.17
2022-12-18T19:51:22.568Z,17.83
2022-12-18T19:53:52.500Z,17.33
2022-12-18T19:56:25.847Z,19.10
2022-12-18T19:58:53.150Z,19.90
2022-12-18T20:01:21.288Z,27.23
2022-12-18T20:03:52.426Z,29.07
2022-12-18T20:06:26.852Z,27.73
2022-12-18T20:08:58.219Z,20.17
2022-12-18T20:11:29.347Z,22.85
2022-12-18T20:13:56.382Z,21.97
2022-12-18T20:16:23.049Z,25.00
2022-12-18T20:18:49.890Z,18.10
2022-12-18T20:21:16.814Z,24.30
2022-12-18T20:23:43.975Z,22.33
2022-12-18T20:26:11.255Z,18.97
2022-12-18T20:28:40.325Z,24.10
2022-12-18T20:31:13.777Z,28.20
2022-12-18T20:33:42.037Z,26.87
2022-12-18T20:36:13.656Z,22.93
2022-12-18T20:38:42.211Z,28.57
2022-12-18T20:41:16.397Z,42.87
2022-12-18T20:43:44.065Z,20.63
2022-12-18T20:46:12.880Z,20.83
2022-12-18T20:48:39.595Z,18.57
2022-12-18T20:51:09.569Z,17.77
2022-12-18T20:53:36.519Z,21.53
2022-12-18T20:56:12.921Z,22.57
2022-12-18T20:58:39.525Z,23.97
2022-12-18T21:01:08.532Z,24.70
2022-12-18T21:03:35.388Z,28.27
2022-12-18T21:06:02.286Z,22.30
2022-12-18T21:08:28.914Z,28.03
2022-12-18T21:10:55.930Z,20.73
2022-12-18T21:13:23.005Z,24.77
2022-12-18T21:15:49.721Z,30.57
2022-12-18T21:18:16.422Z,30.43
2022-12-18T21:20:43.093Z,25.33
2022-12-18T21:23:16.236Z,19.97
2022-12-18T21:25:44.378Z,29.40
2022-12-18T21:28:12.356Z,25.17
2022-12-18T21:30:39.022Z,19.63
2022-12-18T21:33:05.720Z,21.57
2022-12-18T21:35:32.759Z,24.33
2022-12-18T21:37:59.334Z,22.17
2022-12-18T21:40:25.922Z,27.80
2022-12-18T21:43:17.794Z,20.87
2022-12-18T21:45:44.603Z,22.67
2022-12-18T21:48:12.269Z,20.40
2022-12-18T21:50:38.906Z,20.13
2022-12-18T21:53:05.515Z,18.43
2022-12-18T21:55:32.119Z,22.63
2022-12-18T21:57:58.702Z,21.17
2022-12-18T22:00:25.330Z,21.03
2022-12-18T22:03:15.439Z,20.77
2022-12-18T22:05:38.495Z,18.43
2022-12-18T22:08:06.779Z,20.40
2022-12-18T22:10:33.723Z,21.30
2022-12-18T22:13:00.343Z,18.97
2022-12-18T22:15:27.021Z,19.20
2022-12-18T22:18:00.352Z,17.47
2022-12-18T22:20:27.801Z,16.87
2022-12-18T22:22:55.958Z,19.40
2022-12-18T22:25:22.535Z,16.43
2022-12-18T22:28:07.700Z,19.10
2022-12-18T22:30:35.119Z,19.07
2022-12-18T22:33:02.366Z,22.70
2022-12-18T22:35:28.996Z,21.83
2022-12-18T22:37:55.669Z,22.90
2022-12-18T22:40:26.908Z,22.77
2022-12-18T22:42:54.456Z,22.20
2022-12-18T22:45:21.175Z,22.37
2022-12-18T22:47:47.777Z,21.03
2022-12-18T22:50:14.722Z,19.50
2022-12-18T22:52:41.529Z,22.60
2022-12-18T22:55:08.284Z,17.63
2022-12-18T22:57:34.954Z,20.67
2022-12-18T23:00:03.360Z,18.30
2022-12-18T23:02:30.113Z,19.73
2022-12-18T23:04:56.886Z,19.20
2022-12-18T23:07:23.490Z,19.47
2022-12-18T23:09:50.718Z,15.73
2022-12-18T23:12:19.543Z,21.80
2022-12-18T23:14:47.291Z,20.60
2022-12-18T23:17:13.948Z,20.77
2022-12-18T23:19:45.456Z,20.50
2022-12-18T23:22:15.451Z,21.70
2022-12-18T23:24:42.181Z,19.73
2022-12-18T23:27:11.486Z,20.40
2022-12-18T23:29:39.196Z,19.97
2022-12-18T23:32:05.873Z,20.90
2022-12-18T23:34:32.475Z,19.50
2022-12-18T23:36:59.115Z,19.53
2022-12-18T23:39:29.368Z,19.50
2022-12-18T23:42:00.500Z,20.73
2022-12-18T23:44:27.691Z,20.17
2022-12-18T23:46:55.102Z,18.47
2022-12-18T23:49:21.964Z,19.13
2022-12-18T23:51:49.126Z,20.27
2022-12-18T23:54:15.968Z,20.37
2022-12-18T23:56:42.577Z,18.40
2022-12-18T23:59:09.359Z,20.47
